sensor_id;sensor_type;location;lat;lon;timestamp;pressure;altitude;pressure_sealevel;temperature
18474;BMP180;30265;52.408;13.500;2022-07-01T00:04:20;100976.00;;;21.40
18474;BMP180;30265;52.408;13.500;2022-07-01T00:15:07;100967.00;;;21.30
18474;BMP180;30265;52.408;13.500;2022-07-01T00:25:31;100961.00;;;21.10
18474;BMP180;30265;52.408;13.500;2022-07-01T00:35:53;100947.00;;;21.00
18474;BMP180;30265;52.408;13.500;2022-07-01T00:46:16;100944.00;;;21.00
18474;BMP180;30265;52.408;13.500;2022-07-01T00:56:42;100943.00;;;21.00
18474;BMP180;30265;52.408;13.500;2022-07-01T01:07:05;100942.00;;;20.90
18474;BMP180;30265;52.408;13.500;2022-07-01T01:17:28;100951.00;;;20.70
18474;BMP180;30265;52.408;13.500;2022-07-01T01:27:52;100924.00;;;20.80
18474;BMP180;30265;52.408;13.500;2022-07-01T01:38:14;100917.00;;;20.70
18474;BMP180;30265;52.408;13.500;2022-07-01T01:48:37;100910.00;;;20.70
18474;BMP180;30265;52.408;13.500;2022-07-01T01:58:58;100892.00;;;20.60
18474;BMP180;30265;52.408;13.500;2022-07-01T02:09:22;100884.00;;;20.50
18474;BMP180;30265;52.408;13.500;2022-07-01T02:19:43;100895.00;;;20.50
18474;BMP180;30265;52.408;13.500;2022-07-01T02:30:07;100909.00;;;20.50
18474;BMP180;30265;52.408;13.500;2022-07-01T02:40:29;100890.00;;;20.50
18474;BMP180;30265;52.408;13.500;2022-07-01T02:50:52;100911.00;;;20.50
18474;BMP180;30265;52.408;13.500;2022-07-01T03:01:14;100915.00;;;20.40
18474;BMP180;30265;52.408;13.500;2022-07-01T03:11:37;100915.00;;;20.50
18474;BMP180;30265;52.408;13.500;2022-07-01T03:21:59;100913.00;;;21.00
18474;BMP180;30265;52.408;13.500;2022-07-01T03:32:22;100908.00;;;21.40
18474;BMP180;30265;52.408;13.500;2022-07-01T03:42:44;100916.00;;;21.50
18474;BMP180;30265;52.408;13.500;2022-07-01T03:53:07;100909.00;;;21.80
18474;BMP180;30265;52.408;13.500;2022-07-01T04:03:46;100922.00;;;22.10
18474;BMP180;30265;52.408;13.500;2022-07-01T04:14:10;100903.00;;;22.20
18474;BMP180;30265;52.408;13.500;2022-07-01T04:24:32;100904.00;;;22.40
18474;BMP180;30265;52.408;13.500;2022-07-01T04:34:56;100915.00;;;22.90
18474;BMP180;30265;52.408;13.500;2022-07-01T04:45:17;100919.00;;;23.10
18474;BMP180;30265;52.408;13.500;2022-07-01T04:55:40;100912.00;;;23.80
18474;BMP180;30265;52.408;13.500;2022-07-01T05:06:02;100910.00;;;24.30
18474;BMP180;30265;52.408;13.500;2022-07-01T05:16:25;100901.00;;;24.50
18474;BMP180;30265;52.408;13.500;2022-07-01T05:26:46;100892.00;;;24.90
18474;BMP180;30265;52.408;13.500;2022-07-01T05:37:09;100905.00;;;25.30
18474;BMP180;30265;52.408;13.500;2022-07-01T05:47:32;100925.00;;;26.70
18474;BMP180;30265;52.408;13.500;2022-07-01T05:58:05;100947.00;;;25.70
18474;BMP180;30265;52.408;13.500;2022-07-01T06:08:29;100998.00;;;25.50
18474;BMP180;30265;52.408;13.500;2022-07-01T06:18:53;100986.00;;;25.20
18474;BMP180;30265;52.408;13.500;2022-07-01T06:29:15;100985.00;;;25.80
18474;BMP180;30265;52.408;13.500;2022-07-01T06:39:39;100981.00;;;24.80
18474;BMP180;30265;52.408;13.500;2022-07-01T06:50:00;100994.00;;;25.40
18474;BMP180;30265;52.408;13.500;2022-07-01T07:00:30;100982.00;;;25.30
18474;BMP180;30265;52.408;13.500;2022-07-01T07:10:52;100976.00;;;25.70
18474;BMP180;30265;52.408;13.500;2022-07-01T07:21:15;100977.00;;;26.00
18474;BMP180;30265;52.408;13.500;2022-07-01T07:31:37;100970.00;;;26.10
18474;BMP180;30265;52.408;13.500;2022-07-01T07:42:01;100969.00;;;26.00
18474;BMP180;30265;52.408;13.500;2022-07-01T07:52:24;100972.00;;;26.00
18474;BMP180;30265;52.408;13.500;2022-07-01T08:02:47;100973.00;;;27.20
18474;BMP180;30265;52.408;13.500;2022-07-01T08:13:10;100966.00;;;27.60
18474;BMP180;30265;52.408;13.500;2022-07-01T08:23:33;100966.00;;;26.80
18474;BMP180;30265;52.408;13.500;2022-07-01T08:33:55;100987.00;;;27.10
18474;BMP180;30265;52.408;13.500;2022-07-01T08:44:18;100976.00;;;27.10
18474;BMP180;30265;52.408;13.500;2022-07-01T08:54:42;100982.00;;;27.40
18474;BMP180;30265;52.408;13.500;2022-07-01T09:05:06;100980.00;;;28.20
18474;BMP180;30265;52.408;13.500;2022-07-01T09:15:29;100996.00;;;27.60
18474;BMP180;30265;52.408;13.500;2022-07-01T09:25:53;101034.00;;;26.70
18474;BMP180;30265;52.408;13.500;2022-07-01T09:36:15;101079.00;;;23.00
18474;BMP180;30265;52.408;13.500;2022-07-01T09:46:51;101103.00;;;22.40
18474;BMP180;30265;52.408;13.500;2022-07-01T09:57:13;101149.00;;;21.60
18474;BMP180;30265;52.408;13.500;2022-07-01T10:07:44;101176.00;;;20.80
18474;BMP180;30265;52.408;13.500;2022-07-01T10:18:20;101203.00;;;20.40
18474;BMP180;30265;52.408;13.500;2022-07-01T10:28:46;101204.00;;;20.20
18474;BMP180;30265;52.408;13.500;2022-07-01T10:39:15;101235.00;;;19.70
18474;BMP180;30265;52.408;13.500;2022-07-01T10:49:56;101240.00;;;19.40
18474;BMP180;30265;52.408;13.500;2022-07-01T11:00:28;101273.00;;;19.10
18474;BMP180;30265;52.408;13.500;2022-07-01T11:10:58;101256.00;;;19.20
18474;BMP180;30265;52.408;13.500;2022-07-01T11:21:23;101270.00;;;18.90
18474;BMP180;30265;52.408;13.500;2022-07-01T11:31:46;101213.00;;;18.70
18474;BMP180;30265;52.408;13.500;2022-07-01T11:42:09;101185.00;;;18.90
18474;BMP180;30265;52.408;13.500;2022-07-01T11:52:36;101231.00;;;18.30
18474;BMP180;30265;52.408;13.500;2022-07-01T12:02:58;101202.00;;;18.20
18474;BMP180;30265;52.408;13.500;2022-07-01T12:13:22;101190.00;;;18.20
18474;BMP180;30265;52.408;13.500;2022-07-01T12:24:03;101183.00;;;18.60
18474;BMP180;30265;52.408;13.500;2022-07-01T12:34:39;101182.00;;;18.70
18474;BMP180;30265;52.408;13.500;2022-07-01T12:55:48;101229.00;;;19.10
18474;BMP180;30265;52.408;13.500;2022-07-01T13:06:11;101299.00;;;18.80
18474;BMP180;30265;52.408;13.500;2022-07-01T13:16:35;101321.00;;;18.70
18474;BMP180;30265;52.408;13.500;2022-07-01T13:26:57;101341.00;;;18.50
18474;BMP180;30265;52.408;13.500;2022-07-01T13:37:20;101349.00;;;18.50
18474;BMP180;30265;52.408;13.500;2022-07-01T13:47:42;101367.00;;;18.40
18474;BMP180;30265;52.408;13.500;2022-07-01T13:58:05;101373.00;;;18.60
18474;BMP180;30265;52.408;13.500;2022-07-01T14:08:26;101396.00;;;18.20
18474;BMP180;30265;52.408;13.500;2022-07-01T14:18:49;101380.00;;;17.70
18474;BMP180;30265;52.408;13.500;2022-07-01T14:29:15;101380.00;;;17.70
18474;BMP180;30265;52.408;13.500;2022-07-01T14:39:38;101377.00;;;17.70
18474;BMP180;30265;52.408;13.500;2022-07-01T14:50:00;101413.00;;;17.50
18474;BMP180;30265;52.408;13.500;2022-07-01T15:00:24;101430.00;;;17.60
18474;BMP180;30265;52.408;13.500;2022-07-01T15:21:25;101467.00;;;17.50
18474;BMP180;30265;52.408;13.500;2022-07-01T15:31:48;101495.00;;;17.40
18474;BMP180;30265;52.408;13.500;2022-07-01T15:42:14;101496.00;;;17.40
18474;BMP180;30265;52.408;13.500;2022-07-01T15:52:41;101490.00;;;17.50
18474;BMP180;30265;52.408;13.500;2022-07-01T16:03:07;101507.00;;;17.50
18474;BMP180;30265;52.408;13.500;2022-07-01T16:13:29;101509.00;;;17.70
18474;BMP180;30265;52.408;13.500;2022-07-01T16:23:53;101511.00;;;17.70
18474;BMP180;30265;52.408;13.500;2022-07-01T16:34:16;101534.00;;;17.60
18474;BMP180;30265;52.408;13.500;2022-07-01T16:44:44;101532.00;;;17.70
18474;BMP180;30265;52.408;13.500;2022-07-01T16:55:11;101532.00;;;17.60
18474;BMP180;30265;52.408;13.500;2022-07-01T17:05:36;101549.00;;;17.20
18474;BMP180;30265;52.408;13.500;2022-07-01T17:16:00;101588.00;;;17.20
18474;BMP180;30265;52.408;13.500;2022-07-01T17:26:24;101606.00;;;17.00
18474;BMP180;30265;52.408;13.500;2022-07-01T17:36:51;101568.00;;;17.10
18474;BMP180;30265;52.408;13.500;2022-07-01T17:47:15;101571.00;;;17.20
18474;BMP180;30265;52.408;13.500;2022-07-01T17:57:39;101628.00;;;16.90
18474;BMP180;30265;52.408;13.500;2022-07-01T18:08:03;101626.00;;;17.00
18474;BMP180;30265;52.408;13.500;2022-07-01T18:18:30;101641.00;;;17.00
18474;BMP180;30265;52.408;13.500;2022-07-01T18:28:56;101626.00;;;17.10
18474;BMP180;30265;52.408;13.500;2022-07-01T18:39:20;101608.00;;;17.10
18474;BMP180;30265;52.408;13.500;2022-07-01T18:49:44;101614.00;;;17.20
18474;BMP180;30265;52.408;13.500;2022-07-01T19:00:07;101650.00;;;17.20
18474;BMP180;30265;52.408;13.500;2022-07-01T19:10:30;101679.00;;;17.20
18474;BMP180;30265;52.408;13.500;2022-07-01T19:20:52;101703.00;;;17.30
18474;BMP180;30265;52.408;13.500;2022-07-01T19:31:16;101742.00;;;17.30
18474;BMP180;30265;52.408;13.500;2022-07-01T19:41:38;101772.00;;;17.30
18474;BMP180;30265;52.408;13.500;2022-07-01T19:52:00;101797.00;;;17.30
18474;BMP180;30265;52.408;13.500;2022-07-01T20:02:22;101804.00;;;17.30
18474;BMP180;30265;52.408;13.500;2022-07-01T20:12:45;101802.00;;;17.20
18474;BMP180;30265;52.408;13.500;2022-07-01T20:23:07;101817.00;;;17.20
18474;BMP180;30265;52.408;13.500;2022-07-01T20:33:33;101818.00;;;17.30
18474;BMP180;30265;52.408;13.500;2022-07-01T20:43:55;101833.00;;;17.20
18474;BMP180;30265;52.408;13.500;2022-07-01T20:54:20;101846.00;;;17.10
18474;BMP180;30265;52.408;13.500;2022-07-01T21:04:49;101856.00;;;16.90
18474;BMP180;30265;52.408;13.500;2022-07-01T21:15:12;101855.00;;;16.80
18474;BMP180;30265;52.408;13.500;2022-07-01T21:25:34;101843.00;;;16.70
18474;BMP180;30265;52.408;13.500;2022-07-01T21:35:57;101865.00;;;16.60
18474;BMP180;30265;52.408;13.500;2022-07-01T21:46:19;101878.00;;;16.60
18474;BMP180;30265;52.408;13.500;2022-07-01T21:56:49;101889.00;;;16.50
18474;BMP180;30265;52.408;13.500;2022-07-01T22:07:10;101889.00;;;16.30
18474;BMP180;30265;52.408;13.500;2022-07-01T22:17:35;101899.00;;;16.10
18474;BMP180;30265;52.408;13.500;2022-07-01T22:27:57;101911.00;;;15.80
18474;BMP180;30265;52.408;13.500;2022-07-01T22:38:22;101887.00;;;15.40
18474;BMP180;30265;52.408;13.500;2022-07-01T22:48:52;101903.00;;;15.10
18474;BMP180;30265;52.408;13.500;2022-07-01T22:59:20;101916.00;;;14.90
18474;BMP180;30265;52.408;13.500;2022-07-01T23:09:52;101918.00;;;14.50
18474;BMP180;30265;52.408;13.500;2022-07-01T23:20:20;101928.00;;;14.50
18474;BMP180;30265;52.408;13.500;2022-07-01T23:30:42;101934.00;;;14.30
18474;BMP180;30265;52.408;13.500;2022-07-01T23:41:05;101929.00;;;14.10
18474;BMP180;30265;52.408;13.500;2022-07-01T23:51:36;101925.00;;;13.80
